sensor_id;sensor_type;location;lat;lon;timestamp;P1;durP1;ratioP1;P2;durP2;ratioP2
56537;SDS011;42435;53.292;6.000;2023-04-15T07:39:38;8.18;;;4.78;;
56537;SDS011;42435;53.292;6.000;2023-04-15T07:42:03;8.73;;;5.30;;
56537;SDS011;42435;53.292;6.000;2023-04-15T07:44:29;9.57;;;5.90;;
56537;SDS011;42435;53.292;6.000;2023-04-15T07:46:58;8.82;;;4.78;;
56537;SDS011;42435;53.292;6.000;2023-04-15T07:49:24;7.07;;;4.40;;
56537;SDS011;42435;53.292;6.000;2023-04-15T07:51:50;8.50;;;5.47;;
56537;SDS011;42435;53.292;6.000;2023-04-15T07:54:16;9.48;;;5.72;;
56537;SDS011;42435;53.292;6.000;2023-04-15T07:56:45;8.63;;;5.18;;
56537;SDS011;42435;53.292;6.000;2023-04-15T07:59:10;9.65;;;5.70;;
56537;SDS011;42435;53.292;6.000;2023-04-15T08:01:37;9.05;;;5.90;;
56537;SDS011;42435;53.292;6.000;2023-04-15T08:04:03;9.32;;;5.40;;
56537;SDS011;42435;53.292;6.000;2023-04-15T08:06:28;7.60;;;4.78;;
56537;SDS011;42435;53.292;6.000;2023-04-15T08:08:55;9.82;;;4.53;;
56537;SDS011;42435;53.292;6.000;2023-04-15T08:11:21;8.40;;;5.47;;
56537;SDS011;42435;53.292;6.000;2023-04-15T08:13:48;8.25;;;5.18;;
56537;SDS011;42435;53.292;6.000;2023-04-15T08:16:21;8.68;;;4.82;;
56537;SDS011;42435;53.292;6.000;2023-04-15T08:18:48;9.55;;;5.60;;
56537;SDS011;42435;53.292;6.000;2023-04-15T08:21:16;7.95;;;5.00;;
56537;SDS011;42435;53.292;6.000;2023-04-15T08:23:45;8.27;;;5.10;;
56537;SDS011;42435;53.292;6.000;2023-04-15T08:26:12;7.78;;;4.45;;
56537;SDS011;42435;53.292;6.000;2023-04-15T08:28:38;6.95;;;5.20;;
56537;SDS011;42435;53.292;6.000;2023-04-15T08:31:05;10.00;;;5.38;;
56537;SDS011;42435;53.292;6.000;2023-04-15T08:33:32;9.60;;;4.20;;
56537;SDS011;42435;53.292;6.000;2023-04-15T08:35:58;7.53;;;4.70;;
56537;SDS011;42435;53.292;6.000;2023-04-15T08:38:24;12.00;;;5.32;;
56537;SDS011;42435;53.292;6.000;2023-04-15T08:40:51;7.75;;;4.47;;
56537;SDS011;42435;53.292;6.000;2023-04-15T08:43:21;7.50;;;3.88;;
56537;SDS011;42435;53.292;6.000;2023-04-15T08:45:55;7.97;;;4.10;;
56537;SDS011;42435;53.292;6.000;2023-04-15T08:48:24;8.80;;;4.30;;
56537;SDS011;42435;53.292;6.000;2023-04-15T08:50:53;5.30;;;3.38;;
56537;SDS011;42435;53.292;6.000;2023-04-15T08:53:19;5.60;;;3.60;;
56537;SDS011;42435;53.292;6.000;2023-04-15T08:55:45;4.93;;;2.95;;
56537;SDS011;42435;53.292;6.000;2023-04-15T08:58:16;6.13;;;4.13;;
56537;SDS011;42435;53.292;6.000;2023-04-15T09:00:43;5.22;;;3.17;;
56537;SDS011;42435;53.292;6.000;2023-04-15T09:03:08;10.07;;;4.20;;
56537;SDS011;42435;53.292;6.000;2023-04-15T09:05:35;6.20;;;3.00;;
56537;SDS011;42435;53.292;6.000;2023-04-15T09:08:01;8.13;;;3.72;;
56537;SDS011;42435;53.292;6.000;2023-04-15T09:10:28;5.22;;;3.05;;
56537;SDS011;42435;53.292;6.000;2023-04-15T09:12:54;6.60;;;4.18;;
56537;SDS011;42435;53.292;6.000;2023-04-15T09:15:20;5.53;;;3.63;;
56537;SDS011;42435;53.292;6.000;2023-04-15T09:17:46;6.53;;;4.25;;
56537;SDS011;42435;53.292;6.000;2023-04-15T09:20:13;5.85;;;3.55;;
56537;SDS011;42435;53.292;6.000;2023-04-15T09:22:40;7.38;;;3.78;;
56537;SDS011;42435;53.292;6.000;2023-04-15T09:27:54;6.53;;;2.97;;
56537;SDS011;42435;53.292;6.000;2023-04-15T09:30:21;4.85;;;3.17;;
56537;SDS011;42435;53.292;6.000;2023-04-15T09:32:51;5.60;;;2.30;;
56537;SDS011;42435;53.292;6.000;2023-04-15T09:35:17;3.05;;;1.80;;
56537;SDS011;42435;53.292;6.000;2023-04-15T09:37:44;3.97;;;2.00;;
56537;SDS011;42435;53.292;6.000;2023-04-15T09:40:10;4.63;;;2.55;;
56537;SDS011;42435;53.292;6.000;2023-04-15T09:42:54;5.50;;;2.45;;
56537;SDS011;42435;53.292;6.000;2023-04-15T09:45:21;6.75;;;1.90;;
56537;SDS011;42435;53.292;6.000;2023-04-15T09:47:47;2.72;;;1.80;;
56537;SDS011;42435;53.292;6.000;2023-04-15T09:50:13;3.90;;;1.75;;
56537;SDS011;42435;53.292;6.000;2023-04-15T09:52:42;4.90;;;2.33;;
56537;SDS011;42435;53.292;6.000;2023-04-15T09:55:08;2.83;;;1.98;;
56537;SDS011;42435;53.292;6.000;2023-04-15T09:57:36;2.85;;;1.77;;
56537;SDS011;42435;53.292;6.000;2023-04-15T10:00:06;2.20;;;1.60;;
56537;SDS011;42435;53.292;6.000;2023-04-15T10:02:35;3.10;;;1.60;;
56537;SDS011;42435;53.292;6.000;2023-04-15T10:05:01;4.65;;;2.28;;
56537;SDS011;42435;53.292;6.000;2023-04-15T10:07:27;2.58;;;1.30;;
56537;SDS011;42435;53.292;6.000;2023-04-15T10:09:53;2.78;;;1.40;;
56537;SDS011;42435;53.292;6.000;2023-04-15T10:12:20;4.72;;;2.28;;
56537;SDS011;42435;53.292;6.000;2023-04-15T10:14:55;3.65;;;1.60;;
56537;SDS011;42435;53.292;6.000;2023-04-15T10:17:23;1.98;;;1.17;;
56537;SDS011;42435;53.292;6.000;2023-04-15T10:20:00;2.58;;;1.58;;
56537;SDS011;42435;53.292;6.000;2023-04-15T10:22:28;3.55;;;1.40;;
56537;SDS011;42435;53.292;6.000;2023-04-15T10:24:55;3.53;;;1.63;;
56537;SDS011;42435;53.292;6.000;2023-04-15T10:27:21;2.60;;;1.30;;
56537;SDS011;42435;53.292;6.000;2023-04-15T10:29:48;2.15;;;1.10;;
56537;SDS011;42435;53.292;6.000;2023-04-15T10:32:14;2.58;;;1.08;;
56537;SDS011;42435;53.292;6.000;2023-04-15T10:34:43;4.78;;;1.58;;
56537;SDS011;42435;53.292;6.000;2023-04-15T10:37:12;2.72;;;1.40;;
56537;SDS011;42435;53.292;6.000;2023-04-15T10:39:44;3.13;;;1.33;;
56537;SDS011;42435;53.292;6.000;2023-04-15T10:42:19;3.45;;;1.60;;
56537;SDS011;42435;53.292;6.000;2023-04-15T10:44:49;4.10;;;1.38;;
56537;SDS011;42435;53.292;6.000;2023-04-15T10:47:16;7.18;;;1.92;;
56537;SDS011;42435;53.292;6.000;2023-04-15T10:49:47;5.75;;;2.15;;
56537;SDS011;42435;53.292;6.000;2023-04-15T10:52:21;3.63;;;1.65;;
56537;SDS011;42435;53.292;6.000;2023-04-15T10:54:48;3.53;;;1.40;;
56537;SDS011;42435;53.292;6.000;2023-04-15T10:57:21;5.47;;;2.08;;
56537;SDS011;42435;53.292;6.000;2023-04-15T10:59:58;4.07;;;1.60;;
56537;SDS011;42435;53.292;6.000;2023-04-15T11:02:44;5.10;;;2.13;;
56537;SDS011;42435;53.292;6.000;2023-04-15T11:08:03;3.25;;;1.52;;
56537;SDS011;42435;53.292;6.000;2023-04-15T11:15:28;5.88;;;2.40;;
56537;SDS011;42435;53.292;6.000;2023-04-15T11:18:07;2.38;;;1.92;;
56537;SDS011;42435;53.292;6.000;2023-04-15T11:23:00;3.60;;;1.80;;
56537;SDS011;42435;53.292;6.000;2023-04-15T11:25:26;4.45;;;2.58;;
56537;SDS011;42435;53.292;6.000;2023-04-15T11:27:53;6.15;;;2.47;;
56537;SDS011;42435;53.292;6.000;2023-04-15T11:30:23;5.05;;;2.03;;
56537;SDS011;42435;53.292;6.000;2023-04-15T11:33:00;6.07;;;2.20;;
56537;SDS011;42435;53.292;6.000;2023-04-15T11:35:27;4.05;;;1.60;;
56537;SDS011;42435;53.292;6.000;2023-04-15T11:37:53;5.30;;;2.20;;
56537;SDS011;42435;53.292;6.000;2023-04-15T11:40:23;6.10;;;2.72;;
56537;SDS011;42435;53.292;6.000;2023-04-15T11:43:11;4.75;;;1.85;;
56537;SDS011;42435;53.292;6.000;2023-04-15T11:45:37;5.88;;;1.90;;
56537;SDS011;42435;53.292;6.000;2023-04-15T11:48:12;6.90;;;1.70;;
56537;SDS011;42435;53.292;6.000;2023-04-15T11:50:38;8.60;;;2.45;;
56537;SDS011;42435;53.292;6.000;2023-04-15T11:53:07;5.15;;;1.73;;
56537;SDS011;42435;53.292;6.000;2023-04-15T11:55:48;4.65;;;1.90;;
56537;SDS011;42435;53.292;6.000;2023-04-15T11:58:21;6.05;;;1.67;;
56537;SDS011;42435;53.292;6.000;2023-04-15T12:00:51;3.08;;;1.45;;
56537;SDS011;42435;53.292;6.000;2023-04-15T12:03:28;5.75;;;1.50;;
56537;SDS011;42435;53.292;6.000;2023-04-15T12:11:48;7.97;;;2.13;;
56537;SDS011;42435;53.292;6.000;2023-04-15T12:14:28;7.65;;;1.40;;
56537;SDS011;42435;53.292;6.000;2023-04-15T12:16:58;7.38;;;1.95;;
56537;SDS011;42435;53.292;6.000;2023-04-15T12:19:29;5.45;;;1.73;;
56537;SDS011;42435;53.292;6.000;2023-04-15T12:22:00;3.53;;;1.50;;
56537;SDS011;42435;53.292;6.000;2023-04-15T12:24:31;9.73;;;1.92;;
56537;SDS011;42435;53.292;6.000;2023-04-15T12:27:05;7.10;;;2.42;;
56537;SDS011;42435;53.292;6.000;2023-04-15T12:29:32;9.05;;;1.50;;
56537;SDS011;42435;53.292;6.000;2023-04-15T12:32:03;3.85;;;1.15;;
56537;SDS011;42435;53.292;6.000;2023-04-15T12:34:37;4.05;;;1.05;;
56537;SDS011;42435;53.292;6.000;2023-04-15T12:37:05;5.97;;;1.20;;
56537;SDS011;42435;53.292;6.000;2023-04-15T12:39:34;6.80;;;1.35;;
56537;SDS011;42435;53.292;6.000;2023-04-15T12:42:05;6.75;;;1.25;;
56537;SDS011;42435;53.292;6.000;2023-04-15T12:44:32;6.38;;;1.35;;
56537;SDS011;42435;53.292;6.000;2023-04-15T12:46:59;4.50;;;1.00;;
56537;SDS011;42435;53.292;6.000;2023-04-15T12:49:25;4.35;;;0.95;;
56537;SDS011;42435;53.292;6.000;2023-04-15T12:51:55;10.98;;;1.70;;
56537;SDS011;42435;53.292;6.000;2023-04-15T12:54:23;12.27;;;1.80;;
56537;SDS011;42435;53.292;6.000;2023-04-15T12:56:49;9.30;;;1.67;;
56537;SDS011;42435;53.292;6.000;2023-04-15T12:59:15;7.05;;;1.92;;
56537;SDS011;42435;53.292;6.000;2023-04-15T13:01:44;9.93;;;1.10;;
56537;SDS011;42435;53.292;6.000;2023-04-15T13:04:11;9.55;;;1.20;;
56537;SDS011;42435;53.292;6.000;2023-04-15T13:06:36;6.80;;;1.10;;
56537;SDS011;42435;53.292;6.000;2023-04-15T13:09:02;4.75;;;1.17;;
56537;SDS011;42435;53.292;6.000;2023-04-15T13:11:28;9.82;;;1.65;;
56537;SDS011;42435;53.292;6.000;2023-04-15T13:14:05;5.80;;;1.30;;
56537;SDS011;42435;53.292;6.000;2023-04-15T13:16:32;6.90;;;1.65;;
56537;SDS011;42435;53.292;6.000;2023-04-15T13:18:58;7.78;;;1.30;;
56537;SDS011;42435;53.292;6.000;2023-04-15T13:21:25;15.13;;;2.30;;
56537;SDS011;42435;53.292;6.000;2023-04-15T13:23:51;7.55;;;2.03;;
56537;SDS011;42435;53.292;6.000;2023-04-15T13:26:17;9.45;;;2.13;;
56537;SDS011;42435;53.292;6.000;2023-04-15T13:28:44;10.57;;;1.60;;
56537;SDS011;42435;53.292;6.000;2023-04-15T13:31:10;12.60;;;2.08;;
56537;SDS011;42435;53.292;6.000;2023-04-15T13:33:36;5.35;;;1.50;;
56537;SDS011;42435;53.292;6.000;2023-04-15T13:36:01;9.43;;;1.90;;
56537;SDS011;42435;53.292;6.000;2023-04-15T13:38:27;4.03;;;1.25;;
56537;SDS011;42435;53.292;6.000;2023-04-15T13:40:53;5.72;;;1.33;;
56537;SDS011;42435;53.292;6.000;2023-04-15T13:43:18;6.35;;;1.38;;
56537;SDS011;42435;53.292;6.000;2023-04-15T13:45:45;6.40;;;1.70;;
56537;SDS011;42435;53.292;6.000;2023-04-15T13:48:11;6.72;;;1.88;;
56537;SDS011;42435;53.292;6.000;2023-04-15T13:50:37;4.68;;;1.10;;
56537;SDS011;42435;53.292;6.000;2023-04-15T13:53:02;5.22;;;1.42;;
56537;SDS011;42435;53.292;6.000;2023-04-15T13:55:28;5.65;;;1.60;;
56537;SDS011;42435;53.292;6.000;2023-04-15T13:57:55;8.07;;;1.38;;
56537;SDS011;42435;53.292;6.000;2023-04-15T14:00:20;8.60;;;3.17;;
56537;SDS011;42435;53.292;6.000;2023-04-15T14:02:46;10.93;;;2.25;;
56537;SDS011;42435;53.292;6.000;2023-04-15T14:05:12;9.23;;;1.90;;
56537;SDS011;42435;53.292;6.000;2023-04-15T14:07:38;4.30;;;1.10;;
56537;SDS011;42435;53.292;6.000;2023-04-15T14:10:04;7.40;;;1.85;;
56537;SDS011;42435;53.292;6.000;2023-04-15T14:12:30;4.68;;;1.27;;
56537;SDS011;42435;53.292;6.000;2023-04-15T14:14:55;3.97;;;1.20;;
56537;SDS011;42435;53.292;6.000;2023-04-15T14:17:21;6.55;;;1.85;;
56537;SDS011;42435;53.292;6.000;2023-04-15T14:19:46;4.68;;;1.52;;
56537;SDS011;42435;53.292;6.000;2023-04-15T14:22:12;4.95;;;1.58;;
56537;SDS011;42435;53.292;6.000;2023-04-15T14:24:38;3.72;;;1.17;;
56537;SDS011;42435;53.292;6.000;2023-04-15T14:27:03;8.15;;;2.88;;
56537;SDS011;42435;53.292;6.000;2023-04-15T14:29:30;8.88;;;1.88;;
56537;SDS011;42435;53.292;6.000;2023-04-15T14:31:55;5.65;;;1.50;;
56537;SDS011;42435;53.292;6.000;2023-04-15T14:34:22;5.80;;;1.40;;
56537;SDS011;42435;53.292;6.000;2023-04-15T14:36:49;5.90;;;1.20;;
56537;SDS011;42435;53.292;6.000;2023-04-15T14:39:17;7.10;;;2.17;;
56537;SDS011;42435;53.292;6.000;2023-04-15T14:41:43;6.95;;;1.52;;
56537;SDS011;42435;53.292;6.000;2023-04-15T14:44:08;8.70;;;1.95;;
56537;SDS011;42435;53.292;6.000;2023-04-15T14:46:35;9.15;;;1.88;;
56537;SDS011;42435;53.292;6.000;2023-04-15T14:49:02;8.50;;;1.50;;
56537;SDS011;42435;53.292;6.000;2023-04-15T14:51:27;5.90;;;1.60;;
56537;SDS011;42435;53.292;6.000;2023-04-15T14:53:53;8.25;;;1.40;;
56537;SDS011;42435;53.292;6.000;2023-04-15T14:56:19;3.75;;;1.55;;
56537;SDS011;42435;53.292;6.000;2023-04-15T14:58:44;7.72;;;2.17;;
56537;SDS011;42435;53.292;6.000;2023-04-15T15:01:10;6.32;;;1.67;;
56537;SDS011;42435;53.292;6.000;2023-04-15T15:03:36;11.52;;;2.35;;
56537;SDS011;42435;53.292;6.000;2023-04-15T15:06:03;7.13;;;2.80;;
56537;SDS011;42435;53.292;6.000;2023-04-15T15:08:28;6.38;;;1.80;;
56537;SDS011;42435;53.292;6.000;2023-04-15T15:10:54;9.00;;;2.42;;
56537;SDS011;42435;53.292;6.000;2023-04-15T15:13:20;8.88;;;1.80;;
56537;SDS011;42435;53.292;6.000;2023-04-15T15:15:45;9.88;;;2.40;;
56537;SDS011;42435;53.292;6.000;2023-04-15T15:18:13;12.30;;;3.00;;
56537;SDS011;42435;53.292;6.000;2023-04-15T15:20:40;9.05;;;2.30;;
56537;SDS011;42435;53.292;6.000;2023-04-15T15:23:06;7.50;;;1.50;;
56537;SDS011;42435;53.292;6.000;2023-04-15T15:25:32;6.65;;;2.03;;
56537;SDS011;42435;53.292;6.000;2023-04-15T15:28:00;8.75;;;2.17;;
56537;SDS011;42435;53.292;6.000;2023-04-15T15:30:26;9.02;;;2.70;;
56537;SDS011;42435;53.292;6.000;2023-04-15T15:32:52;8.32;;;1.70;;
56537;SDS011;42435;53.292;6.000;2023-04-15T15:35:17;12.73;;;3.58;;
56537;SDS011;42435;53.292;6.000;2023-04-15T15:37:44;4.97;;;1.88;;
56537;SDS011;42435;53.292;6.000;2023-04-15T15:40:10;12.65;;;2.83;;
56537;SDS011;42435;53.292;6.000;2023-04-15T15:42:36;7.97;;;2.55;;
56537;SDS011;42435;53.292;6.000;2023-04-15T15:45:02;9.13;;;2.10;;
56537;SDS011;42435;53.292;6.000;2023-04-15T15:47:28;4.25;;;1.85;;
56537;SDS011;42435;53.292;6.000;2023-04-15T15:49:54;7.60;;;2.30;;
56537;SDS011;42435;53.292;6.000;2023-04-15T15:52:20;10.77;;;2.55;;
56537;SDS011;42435;53.292;6.000;2023-04-15T15:54:46;6.57;;;2.35;;
56537;SDS011;42435;53.292;6.000;2023-04-15T15:57:12;6.50;;;2.85;;
56537;SDS011;42435;53.292;6.000;2023-04-15T15:59:39;9.55;;;2.13;;
56537;SDS011;42435;53.292;6.000;2023-04-15T16:02:10;8.20;;;2.00;;
56537;SDS011;42435;53.292;6.000;2023-04-15T16:04:38;6.50;;;2.05;;
56537;SDS011;42435;53.292;6.000;2023-04-15T16:07:04;10.18;;;2.10;;
56537;SDS011;42435;53.292;6.000;2023-04-15T16:09:30;11.27;;;2.45;;
56537;SDS011;42435;53.292;6.000;2023-04-15T16:11:56;12.45;;;2.42;;
56537;SDS011;42435;53.292;6.000;2023-04-15T16:14:23;8.60;;;2.88;;
56537;SDS011;42435;53.292;6.000;2023-04-15T16:16:49;7.78;;;2.33;;
56537;SDS011;42435;53.292;6.000;2023-04-15T16:19:15;5.85;;;1.90;;
56537;SDS011;42435;53.292;6.000;2023-04-15T16:21:42;8.13;;;2.22;;
56537;SDS011;42435;53.292;6.000;2023-04-15T16:24:08;9.38;;;2.25;;
56537;SDS011;42435;53.292;6.000;2023-04-15T16:26:34;9.63;;;2.90;;
56537;SDS011;42435;53.292;6.000;2023-04-15T16:29:00;17.95;;;2.88;;
56537;SDS011;42435;53.292;6.000;2023-04-15T16:31:26;8.57;;;2.40;;
56537;SDS011;42435;53.292;6.000;2023-04-15T16:33:52;11.75;;;2.60;;
56537;SDS011;42435;53.292;6.000;2023-04-15T16:36:18;9.00;;;2.72;;
56537;SDS011;42435;53.292;6.000;2023-04-15T16:38:43;15.38;;;3.20;;
56537;SDS011;42435;53.292;6.000;2023-04-15T16:41:12;9.40;;;2.90;;
56537;SDS011;42435;53.292;6.000;2023-04-15T16:43:38;13.85;;;3.22;;
56537;SDS011;42435;53.292;6.000;2023-04-15T16:46:04;17.40;;;3.10;;
56537;SDS011;42435;53.292;6.000;2023-04-15T16:48:30;11.45;;;2.45;;
56537;SDS011;42435;53.292;6.000;2023-04-15T16:50:56;10.90;;;2.67;;
56537;SDS011;42435;53.292;6.000;2023-04-15T16:53:22;9.80;;;2.58;;
56537;SDS011;42435;53.292;6.000;2023-04-15T16:55:47;9.32;;;2.45;;
56537;SDS011;42435;53.292;6.000;2023-04-15T16:58:13;12.38;;;3.17;;
56537;SDS011;42435;53.292;6.000;2023-04-15T17:00:40;11.55;;;3.20;;
56537;SDS011;42435;53.292;6.000;2023-04-15T17:03:06;9.52;;;2.60;;
56537;SDS011;42435;53.292;6.000;2023-04-15T17:05:32;12.25;;;2.45;;
56537;SDS011;42435;53.292;6.000;2023-04-15T17:07:58;10.60;;;2.85;;
56537;SDS011;42435;53.292;6.000;2023-04-15T17:10:25;10.95;;;2.72;;
56537;SDS011;42435;53.292;6.000;2023-04-15T17:12:54;8.77;;;2.50;;
56537;SDS011;42435;53.292;6.000;2023-04-15T17:15:26;9.98;;;2.60;;
56537;SDS011;42435;53.292;6.000;2023-04-15T17:18:08;11.73;;;2.58;;
56537;SDS011;42435;53.292;6.000;2023-04-15T17:20:37;9.20;;;2.33;;
56537;SDS011;42435;53.292;6.000;2023-04-15T17:23:06;7.28;;;2.38;;
56537;SDS011;42435;53.292;6.000;2023-04-15T17:25:38;12.68;;;3.22;;
56537;SDS011;42435;53.292;6.000;2023-04-15T17:28:05;9.20;;;2.42;;
56537;SDS011;42435;53.292;6.000;2023-04-15T17:30:31;9.70;;;2.53;;
56537;SDS011;42435;53.292;6.000;2023-04-15T17:32:57;9.32;;;2.60;;
56537;SDS011;42435;53.292;6.000;2023-04-15T17:35:22;7.75;;;2.45;;
56537;SDS011;42435;53.292;6.000;2023-04-15T17:37:50;9.82;;;2.85;;
56537;SDS011;42435;53.292;6.000;2023-04-15T17:40:15;11.02;;;2.53;;
56537;SDS011;42435;53.292;6.000;2023-04-15T17:42:41;17.45;;;3.92;;
56537;SDS011;42435;53.292;6.000;2023-04-15T17:45:09;11.35;;;3.30;;
56537;SDS011;42435;53.292;6.000;2023-04-15T17:47:35;14.52;;;3.80;;
56537;SDS011;42435;53.292;6.000;2023-04-15T17:50:01;10.43;;;3.33;;
56537;SDS011;42435;53.292;6.000;2023-04-15T17:52:26;13.45;;;3.10;;
56537;SDS011;42435;53.292;6.000;2023-04-15T17:54:52;16.75;;;4.40;;
56537;SDS011;42435;53.292;6.000;2023-04-15T17:57:18;14.85;;;4.57;;
56537;SDS011;42435;53.292;6.000;2023-04-15T17:59:43;16.15;;;3.70;;
56537;SDS011;42435;53.292;6.000;2023-04-15T18:02:11;18.13;;;3.45;;
56537;SDS011;42435;53.292;6.000;2023-04-15T18:04:38;13.93;;;3.63;;
56537;SDS011;42435;53.292;6.000;2023-04-15T18:07:04;14.73;;;4.25;;
56537;SDS011;42435;53.292;6.000;2023-04-15T18:09:30;19.13;;;4.22;;
56537;SDS011;42435;53.292;6.000;2023-04-15T18:11:55;14.43;;;3.92;;
56537;SDS011;42435;53.292;6.000;2023-04-15T18:14:21;17.25;;;6.50;;
56537;SDS011;42435;53.292;6.000;2023-04-15T18:16:47;21.10;;;5.40;;
56537;SDS011;42435;53.292;6.000;2023-04-15T18:19:13;16.05;;;5.47;;
56537;SDS011;42435;53.292;6.000;2023-04-15T18:21:39;15.05;;;4.40;;
56537;SDS011;42435;53.292;6.000;2023-04-15T18:24:05;14.38;;;4.38;;
56537;SDS011;42435;53.292;6.000;2023-04-15T18:26:31;9.52;;;3.15;;
56537;SDS011;42435;53.292;6.000;2023-04-15T18:28:57;19.35;;;3.83;;
56537;SDS011;42435;53.292;6.000;2023-04-15T18:31:23;19.27;;;3.70;;
56537;SDS011;42435;53.292;6.000;2023-04-15T18:33:48;21.02;;;5.15;;
56537;SDS011;42435;53.292;6.000;2023-04-15T18:36:14;12.30;;;4.13;;
56537;SDS011;42435;53.292;6.000;2023-04-15T18:38:39;21.27;;;4.68;;
56537;SDS011;42435;53.292;6.000;2023-04-15T18:41:06;15.75;;;4.97;;
56537;SDS011;42435;53.292;6.000;2023-04-15T18:43:32;15.27;;;4.20;;
56537;SDS011;42435;53.292;6.000;2023-04-15T18:45:58;18.65;;;4.05;;
56537;SDS011;42435;53.292;6.000;2023-04-15T18:48:25;23.63;;;5.25;;
56537;SDS011;42435;53.292;6.000;2023-04-15T18:50:52;19.35;;;5.88;;
56537;SDS011;42435;53.292;6.000;2023-04-15T18:53:18;19.00;;;5.47;;
56537;SDS011;42435;53.292;6.000;2023-04-15T18:55:45;13.55;;;5.05;;
56537;SDS011;42435;53.292;6.000;2023-04-15T18:58:10;21.15;;;4.97;;
56537;SDS011;42435;53.292;6.000;2023-04-15T19:00:36;17.45;;;5.38;;
56537;SDS011;42435;53.292;6.000;2023-04-15T19:03:08;15.88;;;5.38;;
56537;SDS011;42435;53.292;6.000;2023-04-15T19:05:34;23.08;;;5.78;;
56537;SDS011;42435;53.292;6.000;2023-04-15T19:08:00;22.20;;;5.55;;
56537;SDS011;42435;53.292;6.000;2023-04-15T19:10:26;19.80;;;5.22;;
56537;SDS011;42435;53.292;6.000;2023-04-15T19:12:52;24.38;;;6.28;;
56537;SDS011;42435;53.292;6.000;2023-04-15T19:15:18;26.80;;;6.57;;
56537;SDS011;42435;53.292;6.000;2023-04-15T19:17:44;20.38;;;6.22;;
56537;SDS011;42435;53.292;6.000;2023-04-15T19:20:10;26.50;;;7.82;;
56537;SDS011;42435;53.292;6.000;2023-04-15T19:22:36;19.52;;;7.00;;
56537;SDS011;42435;53.292;6.000;2023-04-15T19:25:02;27.38;;;9.30;;
56537;SDS011;42435;53.292;6.000;2023-04-15T19:27:29;23.02;;;7.40;;
56537;SDS011;42435;53.292;6.000;2023-04-15T19:29:55;26.27;;;8.18;;
56537;SDS011;42435;53.292;6.000;2023-04-15T19:32:20;27.48;;;9.15;;
56537;SDS011;42435;53.292;6.000;2023-04-15T19:34:46;31.40;;;9.18;;
56537;SDS011;42435;53.292;6.000;2023-04-15T19:37:12;28.33;;;7.70;;
56537;SDS011;42435;53.292;6.000;2023-04-15T19:39:38;23.90;;;7.32;;
56537;SDS011;42435;53.292;6.000;2023-04-15T19:42:04;26.40;;;7.28;;
56537;SDS011;42435;53.292;6.000;2023-04-15T19:44:30;29.55;;;9.07;;
56537;SDS011;42435;53.292;6.000;2023-04-15T19:46:55;21.23;;;7.82;;
56537;SDS011;42435;53.292;6.000;2023-04-15T19:49:21;30.40;;;7.93;;
56537;SDS011;42435;53.292;6.000;2023-04-15T19:51:48;21.85;;;8.50;;
56537;SDS011;42435;53.292;6.000;2023-04-15T19:54:14;29.13;;;9.63;;
56537;SDS011;42435;53.292;6.000;2023-04-15T19:56:40;27.23;;;8.02;;
56537;SDS011;42435;53.292;6.000;2023-04-15T19:59:06;30.58;;;9.55;;
56537;SDS011;42435;53.292;6.000;2023-04-15T20:01:32;31.45;;;10.60;;
56537;SDS011;42435;53.292;6.000;2023-04-15T20:03:57;31.27;;;9.82;;
56537;SDS011;42435;53.292;6.000;2023-04-15T20:06:23;25.17;;;9.45;;
56537;SDS011;42435;53.292;6.000;2023-04-15T20:08:50;28.90;;;10.13;;
56537;SDS011;42435;53.292;6.000;2023-04-15T20:11:16;39.30;;;11.65;;
56537;SDS011;42435;53.292;6.000;2023-04-15T20:13:41;26.08;;;9.38;;
56537;SDS011;42435;53.292;6.000;2023-04-15T20:16:07;26.88;;;9.75;;
56537;SDS011;42435;53.292;6.000;2023-04-15T20:18:33;33.47;;;10.70;;
56537;SDS011;42435;53.292;6.000;2023-04-15T20:20:59;30.00;;;11.35;;
56537;SDS011;42435;53.292;6.000;2023-04-15T20:23:24;30.13;;;9.52;;
56537;SDS011;42435;53.292;6.000;2023-04-15T20:25:50;32.15;;;10.60;;
56537;SDS011;42435;53.292;6.000;2023-04-15T20:28:16;34.22;;;10.77;;
56537;SDS011;42435;53.292;6.000;2023-04-15T20:30:43;36.55;;;11.13;;
56537;SDS011;42435;53.292;6.000;2023-04-15T20:33:09;38.63;;;11.85;;
56537;SDS011;42435;53.292;6.000;2023-04-15T20:35:35;33.90;;;11.55;;
56537;SDS011;42435;53.292;6.000;2023-04-15T20:38:01;36.65;;;12.27;;
56537;SDS011;42435;53.292;6.000;2023-04-15T20:40:28;37.75;;;12.35;;
56537;SDS011;42435;53.292;6.000;2023-04-15T20:42:54;37.50;;;12.15;;
56537;SDS011;42435;53.292;6.000;2023-04-15T20:45:20;33.53;;;11.43;;
56537;SDS011;42435;53.292;6.000;2023-04-15T20:47:46;36.67;;;12.25;;
56537;SDS011;42435;53.292;6.000;2023-04-15T20:50:11;38.00;;;13.07;;
56537;SDS011;42435;53.292;6.000;2023-04-15T20:52:37;35.95;;;12.63;;
56537;SDS011;42435;53.292;6.000;2023-04-15T20:55:03;38.40;;;14.55;;
56537;SDS011;42435;53.292;6.000;2023-04-15T20:57:30;42.08;;;14.90;;
56537;SDS011;42435;53.292;6.000;2023-04-15T20:59:59;41.88;;;13.80;;
56537;SDS011;42435;53.292;6.000;2023-04-15T21:02:24;47.30;;;14.80;;
56537;SDS011;42435;53.292;6.000;2023-04-15T21:04:50;42.25;;;15.15;;
56537;SDS011;42435;53.292;6.000;2023-04-15T21:07:16;40.30;;;12.70;;
56537;SDS011;42435;53.292;6.000;2023-04-15T21:09:41;42.22;;;12.85;;
56537;SDS011;42435;53.292;6.000;2023-04-15T21:12:08;44.08;;;14.15;;
56537;SDS011;42435;53.292;6.000;2023-04-15T21:14:38;44.05;;;14.57;;
56537;SDS011;42435;53.292;6.000;2023-04-15T21:17:04;45.47;;;14.60;;
56537;SDS011;42435;53.292;6.000;2023-04-15T21:19:33;46.05;;;14.50;;
56537;SDS011;42435;53.292;6.000;2023-04-15T21:22:00;36.85;;;13.88;;
56537;SDS011;42435;53.292;6.000;2023-04-15T21:24:26;46.15;;;16.17;;
56537;SDS011;42435;53.292;6.000;2023-04-15T21:26:51;43.63;;;15.65;;
56537;SDS011;42435;53.292;6.000;2023-04-15T21:29:17;48.50;;;16.95;;
56537;SDS011;42435;53.292;6.000;2023-04-15T21:31:43;50.25;;;17.70;;
56537;SDS011;42435;53.292;6.000;2023-04-15T21:34:08;46.85;;;17.98;;
56537;SDS011;42435;53.292;6.000;2023-04-15T21:36:35;51.40;;;18.52;;
56537;SDS011;42435;53.292;6.000;2023-04-15T21:39:01;45.03;;;18.48;;
56537;SDS011;42435;53.292;6.000;2023-04-15T21:41:27;50.30;;;19.30;;
56537;SDS011;42435;53.292;6.000;2023-04-15T21:43:53;50.22;;;18.00;;
56537;SDS011;42435;53.292;6.000;2023-04-15T21:46:20;43.60;;;17.92;;
56537;SDS011;42435;53.292;6.000;2023-04-15T21:48:45;48.88;;;18.95;;
56537;SDS011;42435;53.292;6.000;2023-04-15T21:51:11;56.45;;;19.58;;
56537;SDS011;42435;53.292;6.000;2023-04-15T21:53:37;55.15;;;19.88;;
56537;SDS011;42435;53.292;6.000;2023-04-15T21:56:03;57.97;;;20.83;;
56537;SDS011;42435;53.292;6.000;2023-04-15T21:58:31;46.63;;;17.75;;
56537;SDS011;42435;53.292;6.000;2023-04-15T22:00:57;53.55;;;19.60;;
56537;SDS011;42435;53.292;6.000;2023-04-15T22:03:27;57.35;;;19.45;;
56537;SDS011;42435;53.292;6.000;2023-04-15T22:05:54;50.35;;;19.35;;
56537;SDS011;42435;53.292;6.000;2023-04-15T22:08:20;46.70;;;18.90;;
56537;SDS011;42435;53.292;6.000;2023-04-15T22:10:45;49.28;;;19.73;;
56537;SDS011;42435;53.292;6.000;2023-04-15T22:13:11;57.38;;;19.90;;
56537;SDS011;42435;53.292;6.000;2023-04-15T22:15:37;52.20;;;20.10;;
56537;SDS011;42435;53.292;6.000;2023-04-15T22:18:03;62.25;;;20.33;;
56537;SDS011;42435;53.292;6.000;2023-04-15T22:20:29;61.28;;;22.10;;
56537;SDS011;42435;53.292;6.000;2023-04-15T22:22:55;59.10;;;20.58;;
56537;SDS011;42435;53.292;6.000;2023-04-15T22:25:21;63.08;;;21.98;;
56537;SDS011;42435;53.292;6.000;2023-04-15T22:27:47;63.65;;;23.83;;
56537;SDS011;42435;53.292;6.000;2023-04-15T22:30:12;67.55;;;22.17;;
56537;SDS011;42435;53.292;6.000;2023-04-15T22:32:38;59.13;;;23.08;;
56537;SDS011;42435;53.292;6.000;2023-04-15T22:35:03;76.07;;;24.55;;
56537;SDS011;42435;53.292;6.000;2023-04-15T22:37:31;61.65;;;21.45;;